Time;durP1;ratioP1;P1;durP2;ratioP2;P2;SDS_P1;SDS_P2;PMS_P1;PMS_P2;Temp;Humidity;BMP_temperature;BMP_pressure;BME280_temperature;BME280_humidity;BME280_pressure;Samples;Min_cycle;Max_cycle;Signal;HPM_P1;HPM_P2
2021/06/22 00:01:24;;;;;;;1.45;0.40;;;19.20;91.70;;;;;;4926977;29;20051;-76
2021/06/22 00:03:52;;;;;;;0.85;0.60;;;19.80;90.90;;;;;;4931804;29;20030;-75
2021/06/22 00:06:19;;;;;;;0.47;0.30;;;20.00;91.20;;;;;;4924123;29;20032;-75
2021/06/22 00:08:47;;;;;;;2.30;0.55;;;20.40;89.60;;;;;;4930369;29;20032;-75
2021/06/22 00:11:14;;;;;;;1.33;0.28;;;20.80;89.20;;;;;;4927550;29;20118;-75
2021/06/22 00:13:45;;;;;;;2.10;0.30;;;20.90;88.10;;;;;;4927006;29;20040;-75
2021/06/22 00:16:13;;;;;;;2.03;0.40;;;21.00;87.40;;;;;;4926677;29;20028;-75
2021/06/22 00:18:40;;;;;;;2.28;0.20;;;21.00;87.80;;;;;;4930610;29;20044;-77
2021/06/22 00:21:08;;;;;;;5.15;0.52;;;21.10;86.80;;;;;;4925366;29;20195;-75
2021/06/22 00:23:35;;;;;;;1.08;0.20;;;21.00;86.60;;;;;;4926522;29;20482;-76
2021/06/22 00:26:03;;;;;;;3.47;0.40;;;21.00;86.00;;;;;;4925796;29;20020;-77
2021/06/22 00:28:30;;;;;;;1.85;0.55;;;21.50;83.50;;;;;;4920959;29;20047;-75
2021/06/22 00:30:58;;;;;;;0.85;0.40;;;21.40;83.40;;;;;;4925567;29;20129;-74
2021/06/22 00:33:25;;;;;;;2.47;0.40;;;21.40;82.50;;;;;;4924507;29;20054;-75
2021/06/22 00:35:53;;;;;;;0.65;0.30;;;21.30;83.30;;;;;;4930869;29;20026;-74
2021/06/22 00:38:20;;;;;;;0.32;0.20;;;21.30;81.80;;;;;;4925582;29;20074;-73
2021/06/22 00:40:47;;;;;;;3.10;0.70;;;20.50;83.30;;;;;;4927022;29;20035;-74
2021/06/22 00:43:15;;;;;;;5.57;0.47;;;20.20;85.40;;;;;;4922355;29;20144;-73
2021/06/22 00:45:43;;;;;;;1.63;0.30;;;19.70;87.30;;;;;;4923995;29;20111;-75
2021/06/22 00:48:10;;;;;;;3.25;0.77;;;20.20;87.00;;;;;;4925148;29;20032;-74
2021/06/22 00:50:38;;;;;;;1.83;0.63;;;20.50;87.00;;;;;;4930791;29;20020;-74
2021/06/22 00:53:08;;;;;;;2.47;0.47;;;20.90;84.40;;;;;;4931340;29;20033;-74
2021/06/22 00:55:36;;;;;;;3.65;0.82;;;21.10;83.30;;;;;;4934633;29;20059;-74
2021/06/22 00:58:06;;;;;;;1.95;0.50;;;20.90;84.00;;;;;;4933080;29;20058;-74
2021/06/22 01:00:36;;;;;;;0.85;0.45;;;20.90;83.80;;;;;;4930443;29;20023;-75
2021/06/22 01:03:04;;;;;;;1.98;0.52;;;21.30;83.30;;;;;;4930794;29;20047;-74
2021/06/22 01:05:33;;;;;;;2.95;1.00;;;21.30;82.70;;;;;;4928106;29;20079;-75
2021/06/22 01:08:01;;;;;;;2.38;0.90;;;21.80;81.00;;;;;;4932400;29;20562;-74
2021/06/22 01:10:29;;;;;;;1.92;0.68;;;22.00;80.60;;;;;;4932226;29;20036;-73
2021/06/22 01:12:57;;;;;;;5.10;0.85;;;23.10;77.50;;;;;;4927124;29;20035;-72
2021/06/22 01:15:29;;;;;;;1.50;0.73;;;23.10;76.40;;;;;;4929475;29;20625;-71
2021/06/22 01:17:59;;;;;;;2.85;0.50;;;22.40;78.00;;;;;;4926709;29;20398;-74
2021/06/22 01:20:31;;;;;;;2.15;0.35;;;22.10;80.70;;;;;;4927392;29;20031;-73
2021/06/22 01:23:00;;;;;;;3.90;0.70;;;22.00;81.00;;;;;;4929253;29;20034;-73
2021/06/22 01:25:28;;;;;;;3.67;0.70;;;22.50;78.80;;;;;;4913786;29;20031;-73
2021/06/22 01:27:58;;;;;;;2.15;0.50;;;23.10;78.10;;;;;;4925886;29;20030;-74
2021/06/22 01:30:27;;;;;;;3.83;0.50;;;23.20;76.50;;;;;;4929219;29;20513;-71
2021/06/22 01:32:55;;;;;;;3.40;1.35;;;24.00;77.00;;;;;;4928796;29;20589;-71
2021/06/22 01:35:24;;;;;;;2.95;0.65;;;24.50;73.70;;;;;;4930036;29;20039;-72
2021/06/22 01:37:58;;;;;;;1.85;0.52;;;24.30;71.90;;;;;;4932495;29;20106;-72
2021/06/22 01:40:26;;;;;;;3.63;0.70;;;24.00;72.30;;;;;;4930472;29;20040;-72
2021/06/22 01:43:00;;;;;;;0.75;0.40;;;23.80;73.90;;;;;;4925815;29;20157;-72
2021/06/22 01:45:28;;;;;;;2.72;0.50;;;23.80;73.40;;;;;;4927901;29;20089;-73
2021/06/22 01:47:56;;;;;;;0.63;0.30;;;24.30;73.60;;;;;;4927729;29;20027;-72
2021/06/22 01:50:23;;;;;;;1.10;0.50;;;24.50;73.90;;;;;;4928030;29;20498;-73
2021/06/22 01:52:51;;;;;;;2.72;0.47;;;24.60;74.30;;;;;;4927862;29;20027;-73
2021/06/22 01:55:38;;;;;;;1.80;0.60;;;24.50;73.10;;;;;;4929173;29;20020;-74
2021/06/22 01:58:08;;;;;;;2.08;0.40;;;24.70;73.30;;;;;;4927995;29;20478;-73
2021/06/22 02:00:37;;;;;;;1.60;0.50;;;25.50;72.40;;;;;;4926250;29;20484;-73
2021/06/22 02:03:05;;;;;;;1.38;0.50;;;25.40;70.70;;;;;;4921966;29;20554;-73
2021/06/22 02:05:33;;;;;;;2.80;0.73;;;25.80;71.20;;;;;;4926488;29;20102;-73
2021/06/22 02:08:00;;;;;;;1.58;0.47;;;26.30;69.90;;;;;;4927470;29;20506;-73
2021/06/22 02:10:31;;;;;;;0.85;0.30;;;25.80;70.20;;;;;;4929518;29;20546;-73
2021/06/22 02:12:58;;;;;;;0.22;0.20;;;25.80;69.20;;;;;;4926430;29;20032;-73
2021/06/22 02:15:26;;;;;;;1.65;0.43;;;24.50;71.50;;;;;;4925563;29;20084;-73
2021/06/22 02:17:53;;;;;;;1.30;0.57;;;23.90;74.30;;;;;;4927419;29;20031;-72
2021/06/22 02:20:21;;;;;;;1.48;0.30;;;24.60;74.00;;;;;;4927004;29;20031;-72
2021/06/22 02:22:49;;;;;;;2.50;0.30;;;25.20;68.70;;;;;;4926047;29;20032;-72
2021/06/22 02:25:17;;;;;;;0.40;0.20;;;24.60;69.80;;;;;;4923766;29;20071;-72
2021/06/22 02:27:45;;;;;;;0.73;0.35;;;23.20;73.40;;;;;;4922097;29;20122;-71
2021/06/22 02:30:16;;;;;;;4.32;0.82;;;22.00;74.90;;;;;;4927075;29;20039;-71
2021/06/22 02:32:43;;;;;;;1.65;0.50;;;21.30;76.90;;;;;;4906716;29;20495;-71
2021/06/22 02:35:13;;;;;;;0.82;0.52;;;21.60;77.70;;;;;;4925396;29;20119;-72
2021/06/22 02:37:42;;;;;;;1.42;0.30;;;22.00;77.10;;;;;;4925830;29;20035;-71
2021/06/22 02:40:12;;;;;;;1.70;0.43;;;21.70;79.40;;;;;;4927064;29;20031;-72
2021/06/22 02:42:40;;;;;;;1.33;0.22;;;21.00;79.20;;;;;;4925591;29;20063;-71
2021/06/22 02:45:08;;;;;;;2.40;0.20;;;21.00;78.40;;;;;;4929881;29;20114;-71
2021/06/22 02:47:35;;;;;;;1.65;0.50;;;20.60;83.20;;;;;;4927993;29;20130;-71
2021/06/22 02:50:05;;;;;;;0.40;0.30;;;20.20;83.80;;;;;;4916358;29;20055;-72
2021/06/22 02:52:32;;;;;;;2.30;0.55;;;19.80;84.10;;;;;;4931180;29;20480;-72
2021/06/22 02:55:00;;;;;;;2.33;0.40;;;19.50;83.80;;;;;;4933640;29;20132;-72
2021/06/22 02:57:27;;;;;;;0.35;0.20;;;19.60;84.60;;;;;;4926625;29;20058;-71
2021/06/22 02:59:54;;;;;;;2.55;0.60;;;19.20;84.70;;;;;;4925943;29;20035;-72
2021/06/22 03:02:22;;;;;;;1.92;0.32;;;19.10;85.50;;;;;;4925974;29;20503;-71
2021/06/22 03:04:49;;;;;;;3.88;0.57;;;19.00;85.70;;;;;;4926285;29;20040;-71
2021/06/22 03:07:17;;;;;;;0.47;0.10;;;18.90;86.30;;;;;;4929512;29;20051;-72
2021/06/22 03:09:44;;;;;;;1.05;0.20;;;18.80;86.70;;;;;;4929424;29;20486;-72
2021/06/22 03:12:12;;;;;;;0.25;0.20;;;18.80;87.30;;;;;;4928163;29;20040;-71
2021/06/22 03:14:39;;;;;;;1.48;0.75;;;18.70;88.80;;;;;;4925410;29;20039;-70
2021/06/22 03:17:07;;;;;;;1.55;0.22;;;18.70;87.40;;;;;;4928374;29;20031;-71
2021/06/22 03:19:34;;;;;;;1.55;0.40;;;18.70;86.60;;;;;;4908843;29;20036;-71
2021/06/22 03:22:01;;;;;;;2.30;0.30;;;18.80;86.10;;;;;;4928751;29;20138;-72
2021/06/22 03:24:29;;;;;;;0.40;0.20;;;18.80;85.90;;;;;;4923828;29;20028;-72
2021/06/22 03:26:56;;;;;;;2.13;0.20;;;18.70;86.60;;;;;;4926498;29;20031;-71
2021/06/22 03:29:24;;;;;;;2.00;0.30;;;18.70;86.70;;;;;;4926229;29;20102;-71
2021/06/22 03:31:52;;;;;;;2.65;0.30;;;18.50;88.00;;;;;;4928527;29;20038;-70
2021/06/22 03:34:20;;;;;;;0.70;0.30;;;18.50;88.40;;;;;;4924450;29;20129;-71
2021/06/22 03:36:47;;;;;;;1.40;0.52;;;18.40;88.00;;;;;;4932012;29;20055;-72
2021/06/22 03:39:15;;;;;;;0.55;0.20;;;18.30;88.60;;;;;;4924256;29;20027;-71
2021/06/22 03:41:43;;;;;;;0.90;0.20;;;18.10;88.80;;;;;;4924880;29;20069;-71
2021/06/22 03:44:10;;;;;;;0.38;0.30;;;18.10;89.20;;;;;;4925629;29;20104;-71
2021/06/22 03:46:37;;;;;;;1.17;0.80;;;18.20;88.40;;;;;;4929237;29;20031;-71
2021/06/22 03:49:05;;;;;;;1.13;0.40;;;18.30;87.60;;;;;;4924244;29;20044;-72
2021/06/22 03:51:32;;;;;;;0.90;0.63;;;18.30;87.70;;;;;;4926974;29;20035;-71
2021/06/22 03:54:00;;;;;;;0.63;0.43;;;18.40;89.20;;;;;;4927550;29;20557;-70
2021/06/22 03:56:28;;;;;;;2.05;0.55;;;18.40;90.40;;;;;;4926342;29;20103;-71
2021/06/22 03:58:55;;;;;;;1.40;0.63;;;18.40;90.60;;;;;;4921593;29;20088;-71
2021/06/22 04:01:23;;;;;;;2.33;0.50;;;18.30;90.80;;;;;;4924183;29;20040;-72
2021/06/22 04:03:50;;;;;;;2.58;0.45;;;18.30;90.80;;;;;;4921717;29;20031;-72
2021/06/22 04:06:18;;;;;;;2.45;0.40;;;18.40;90.80;;;;;;4927240;29;20426;-72
2021/06/22 04:08:45;;;;;;;0.93;0.50;;;18.40;90.60;;;;;;4925391;29;20028;-72
2021/06/22 04:11:13;;;;;;;0.88;0.30;;;18.40;90.30;;;;;;4921301;29;20088;-73
2021/06/22 04:13:41;;;;;;;0.82;0.52;;;18.50;90.10;;;;;;4927578;29;20027;-72
2021/06/22 04:16:09;;;;;;;0.95;0.25;;;18.40;90.20;;;;;;4923746;29;20507;-72
2021/06/22 04:18:36;;;;;;;1.40;0.20;;;18.50;90.30;;;;;;4926108;29;20040;-73
2021/06/22 04:21:04;;;;;;;1.38;0.40;;;18.40;90.50;;;;;;4923821;29;20553;-72
2021/06/22 04:23:31;;;;;;;0.50;0.50;;;18.30;90.60;;;;;;4925639;29;20106;-72
2021/06/22 04:26:00;;;;;;;3.00;0.30;;;18.30;90.50;;;;;;4921771;29;20103;-72
2021/06/22 04:28:28;;;;;;;2.15;0.40;;;18.30;90.70;;;;;;4920554;29;20383;-72
2021/06/22 04:30:55;;;;;;;2.85;0.57;;;18.20;90.60;;;;;;4922863;29;20067;-73
2021/06/22 04:33:24;;;;;;;1.50;0.40;;;18.10;91.00;;;;;;4921380;29;20170;-70
2021/06/22 04:35:51;;;;;;;1.20;0.60;;;18.10;90.90;;;;;;4925062;29;20034;-72
2021/06/22 04:38:19;;;;;;;3.63;0.30;;;18.00;91.20;;;;;;4922165;29;20049;-71
2021/06/22 04:40:47;;;;;;;0.77;0.30;;;17.90;91.60;;;;;;4926953;29;20023;-72
2021/06/22 04:43:15;;;;;;;1.17;0.30;;;17.90;91.60;;;;;;4924271;29;20110;-71
2021/06/22 04:45:42;;;;;;;2.97;0.43;;;18.00;91.70;;;;;;4920025;29;20020;-71
2021/06/22 04:48:10;;;;;;;3.10;0.50;;;17.90;91.60;;;;;;4922810;29;20343;-76
2021/06/22 04:50:38;;;;;;;1.55;0.50;;;17.90;92.00;;;;;;4921253;29;20027;-75
2021/06/22 04:53:06;;;;;;;1.83;0.47;;;17.80;92.00;;;;;;4922267;29;20020;-76
2021/06/22 04:55:33;;;;;;;2.13;0.40;;;17.80;92.10;;;;;;4906103;29;20043;-76
2021/06/22 04:58:01;;;;;;;1.35;0.60;;;17.80;92.10;;;;;;4921795;29;20148;-77
2021/06/22 05:00:29;;;;;;;1.08;0.40;;;17.70;92.50;;;;;;4922550;29;20479;-75
2021/06/22 05:02:57;;;;;;;1.02;0.47;;;17.70;92.70;;;;;;4924193;29;20047;-76
2021/06/22 05:05:25;;;;;;;2.13;0.60;;;17.80;92.50;;;;;;4921541;29;20038;-75
2021/06/22 05:07:53;;;;;;;3.13;0.50;;;17.70;93.00;;;;;;4924572;29;20490;-74
2021/06/22 05:10:20;;;;;;;2.70;0.47;;;17.70;92.90;;;;;;4920813;29;20042;-75
2021/06/22 05:12:48;;;;;;;1.42;0.52;;;17.70;92.80;;;;;;4920361;29;20404;-78
2021/06/22 05:15:15;;;;;;;1.98;0.75;;;17.70;92.90;;;;;;4920481;29;20084;-75
2021/06/22 05:17:43;;;;;;;2.50;0.50;;;17.80;92.50;;;;;;4921651;29;20027;-75
2021/06/22 05:20:11;;;;;;;1.30;0.30;;;17.80;92.60;;;;;;4916748;29;20150;-75
2021/06/22 05:22:38;;;;;;;2.72;0.38;;;17.80;93.00;;;;;;4917026;29;20152;-76
2021/06/22 05:25:06;;;;;;;2.58;0.77;;;17.90;92.60;;;;;;4923305;29;20019;-74
2021/06/22 05:27:34;;;;;;;0.98;0.43;;;17.80;92.30;;;;;;4920302;29;20431;-74
2021/06/22 05:30:01;;;;;;;3.08;0.55;;;17.70;92.50;;;;;;4921101;29;20024;-75
2021/06/22 05:32:29;;;;;;;0.82;0.30;;;17.70;92.70;;;;;;4920960;29;20086;-75
2021/06/22 05:34:56;;;;;;;1.73;0.60;;;17.70;92.70;;;;;;4926462;29;20039;-76
2021/06/22 05:37:24;;;;;;;2.05;0.52;;;17.70;92.70;;;;;;4927142;29;20060;-76
2021/06/22 05:39:52;;;;;;;3.10;0.35;;;17.60;92.90;;;;;;4924764;29;20442;-75
2021/06/22 05:42:19;;;;;;;0.55;0.30;;;17.50;92.80;;;;;;4929867;29;20104;-74
2021/06/22 05:44:47;;;;;;;0.77;0.28;;;17.40;92.90;;;;;;4925099;29;20046;-75
2021/06/22 05:47:14;;;;;;;1.42;0.40;;;17.30;92.90;;;;;;4922697;29;20513;-73
2021/06/22 05:49:42;;;;;;;0.75;0.40;;;17.20;93.10;;;;;;4926686;29;20098;-74
2021/06/22 05:52:09;;;;;;;1.58;0.60;;;17.20;93.50;;;;;;4927876;29;20040;-75
2021/06/22 05:54:38;;;;;;;0.77;0.40;;;17.10;93.70;;;;;;4925293;29;20034;-75
2021/06/22 05:57:06;;;;;;;0.90;0.50;;;17.00;94.00;;;;;;4924721;29;20367;-74
2021/06/22 05:59:34;;;;;;;1.02;0.65;;;16.90;94.10;;;;;;4924363;29;20034;-74
2021/06/22 06:02:01;;;;;;;4.05;0.30;;;16.80;94.50;;;;;;4925842;29;20048;-74
2021/06/22 06:04:32;;;;;;;1.75;0.35;;;16.70;95.10;;;;;;4922763;29;20043;-75
2021/06/22 06:07:00;;;;;;;2.03;0.65;;;16.70;95.10;;;;;;4925946;29;20047;-73
2021/06/22 06:09:28;;;;;;;2.03;0.40;;;16.60;95.30;;;;;;4921935;29;20028;-74
2021/06/22 06:11:55;;;;;;;2.63;0.60;;;16.50;95.50;;;;;;4922167;29;20066;-74
2021/06/22 06:14:23;;;;;;;2.65;0.80;;;16.50;96.40;;;;;;4927026;29;20554;-73
2021/06/22 06:16:51;;;;;;;3.10;1.58;;;16.40;96.50;;;;;;4924827;29;20071;-73
2021/06/22 06:19:18;;;;;;;1.55;0.52;;;16.30;96.80;;;;;;4923532;29;20028;-73
2021/06/22 06:21:47;;;;;;;1.60;0.55;;;16.20;96.70;;;;;;4922734;29;20404;-72
2021/06/22 06:24:15;;;;;;;1.30;0.50;;;16.10;96.90;;;;;;4926702;29;20048;-74
2021/06/22 06:26:51;;;;;;;2.55;0.68;;;16.00;96.70;;;;;;4922991;29;20048;-75
2021/06/22 06:29:35;;;;;;;1.23;0.65;;;15.90;97.00;;;;;;4920949;29;20743;-74
2021/06/22 06:32:03;;;;;;;2.78;0.70;;;15.90;97.10;;;;;;4924516;29;20147;-73
2021/06/22 06:34:30;;;;;;;1.73;0.77;;;15.80;97.40;;;;;;4928834;29;20070;-73
2021/06/22 06:36:57;;;;;;;2.92;0.65;;;15.70;97.60;;;;;;4926737;29;20496;-74
2021/06/22 06:39:25;;;;;;;0.93;0.40;;;15.60;98.00;;;;;;4922546;29;20028;-74
2021/06/22 06:41:52;;;;;;;1.42;1.10;;;15.60;98.30;;;;;;4926617;29;20055;-74
2021/06/22 06:44:20;;;;;;;5.05;0.77;;;15.50;98.70;;;;;;4926013;29;20039;-76
2021/06/22 06:46:47;;;;;;;1.92;0.55;;;15.40;99.20;;;;;;4924702;29;20298;-73
2021/06/22 06:49:14;;;;;;;1.63;0.80;;;15.40;99.20;;;;;;4922808;29;20027;-73
2021/06/22 06:51:42;;;;;;;3.78;1.25;;;15.30;99.50;;;;;;4925019;29;20546;-76
2021/06/22 06:54:09;;;;;;;0.95;0.57;;;15.30;99.50;;;;;;4925089;29;20032;-75
2021/06/22 06:56:37;;;;;;;2.10;0.95;;;15.30;99.50;;;;;;4923118;29;20035;-74
2021/06/22 06:59:04;;;;;;;2.47;0.73;;;15.10;99.70;;;;;;4924068;29;20099;-73
2021/06/22 07:01:32;;;;;;;3.72;1.25;;;15.00;99.90;;;;;;4925773;29;20043;-73
2021/06/22 07:03:59;;;;;;;4.32;0.82;;;15.00;99.90;;;;;;4924945;29;20028;-73
2021/06/22 07:06:27;;;;;;;1.35;1.05;;;14.90;99.90;;;;;;4924025;29;20032;-73
2021/06/22 07:08:54;;;;;;;3.25;0.82;;;14.90;99.90;;;;;;4926359;29;20035;-72
2021/06/22 07:11:22;;;;;;;2.25;1.02;;;14.80;99.90;;;;;;4927542;29;20043;-73
2021/06/22 07:13:49;;;;;;;2.58;0.93;;;14.80;99.90;;;;;;4925257;29;20181;-74
2021/06/22 07:16:18;;;;;;;3.47;1.10;;;14.80;99.90;;;;;;4928371;29;20038;-75
2021/06/22 07:18:45;;;;;;;2.60;1.13;;;14.70;99.90;;;;;;4928157;29;20522;-72
2021/06/22 07:21:13;;;;;;;2.45;1.70;;;14.70;99.90;;;;;;4929542;29;20032;-72
2021/06/22 07:23:40;;;;;;;3.13;0.95;;;14.70;99.90;;;;;;4922841;29;20036;-73
2021/06/22 07:26:08;;;;;;;4.22;1.40;;;14.70;99.90;;;;;;4925731;29;20036;-74
2021/06/22 07:28:36;;;;;;;6.65;2.40;;;14.60;99.90;;;;;;4925059;29;20106;-75
2021/06/22 07:31:11;;;;;;;5.20;2.58;;;14.60;99.90;;;;;;4925668;29;20034;-73
2021/06/22 07:33:40;;;;;;;8.10;1.98;;;14.60;99.90;;;;;;4923701;29;20039;-73
2021/06/22 07:36:08;;;;;;;5.65;1.95;;;14.60;99.90;;;;;;4923433;29;20036;-73
2021/06/22 07:38:36;;;;;;;4.05;1.83;;;14.50;99.90;;;;;;4918181;29;20293;-75
2021/06/22 07:41:04;;;;;;;5.15;2.85;;;14.50;99.90;;;;;;4922879;29;20114;-74
2021/06/22 07:43:31;;;;;;;6.25;2.88;;;14.50;99.90;;;;;;4927770;29;20036;-72
2021/06/22 07:45:59;;;;;;;5.45;2.65;;;14.60;99.90;;;;;;4924176;29;20084;-74
2021/06/22 07:48:26;;;;;;;10.27;5.25;;;14.50;99.90;;;;;;4920116;29;20031;-73
2021/06/22 07:50:54;;;;;;;6.40;4.55;;;14.50;99.90;;;;;;4922481;29;20058;-74
2021/06/22 07:53:21;;;;;;;7.47;3.28;;;14.30;99.90;;;;;;4923344;29;20075;-75
2021/06/22 07:55:48;;;;;;;5.88;2.90;;;14.30;99.90;;;;;;4923620;29;20056;-74
2021/06/22 07:58:16;;;;;;;8.93;3.40;;;14.20;99.90;;;;;;4922606;29;20383;-74
2021/06/22 08:00:45;;;;;;;6.35;2.25;;;14.10;99.90;;;;;;4922779;29;20040;-74
2021/06/22 08:03:18;;;;;;;5.45;2.20;;;14.00;99.90;;;;;;4923418;29;20028;-73
2021/06/22 08:05:48;;;;;;;4.93;2.33;;;13.90;99.90;;;;;;4924413;29;20423;-74
2021/06/22 08:08:20;;;;;;;3.42;1.70;;;13.70;99.90;;;;;;4920369;29;20095;-73
2021/06/22 08:10:51;;;;;;;6.50;2.70;;;13.60;99.90;;;;;;4923144;29;20045;-73
2021/06/22 08:13:19;;;;;;;5.28;3.20;;;13.50;99.90;;;;;;4921240;29;20070;-73
2021/06/22 08:15:48;;;;;;;7.55;3.20;;;13.40;99.90;;;;;;4923440;29;20115;-73
2021/06/22 08:18:16;;;;;;;6.75;4.13;;;13.40;99.90;;;;;;4921543;29;20024;-74
2021/06/22 08:20:44;;;;;;;9.98;3.35;;;13.30;99.90;;;;;;4925832;29;20023;-74
2021/06/22 08:23:12;;;;;;;5.45;3.55;;;13.30;99.90;;;;;;4922361;29;20024;-74
2021/06/22 08:25:40;;;;;;;7.43;4.05;;;13.20;99.90;;;;;;4923078;29;20134;-74
2021/06/22 08:28:07;;;;;;;7.53;4.10;;;13.20;99.90;;;;;;4921937;29;20372;-74
2021/06/22 08:30:35;;;;;;;8.27;3.33;;;13.20;99.90;;;;;;4906554;29;20058;-74
2021/06/22 08:33:03;;;;;;;5.55;3.08;;;13.10;99.90;;;;;;4920311;29;20044;-76
2021/06/22 08:35:32;;;;;;;4.72;3.20;;;13.10;99.90;;;;;;4918498;29;20632;-74
2021/06/22 08:38:00;;;;;;;8.93;4.20;;;13.10;99.90;;;;;;4923199;29;20036;-73
2021/06/22 08:40:28;;;;;;;5.47;3.00;;;13.00;99.90;;;;;;4922612;29;20059;-72
2021/06/22 08:42:56;;;;;;;6.15;2.92;;;12.90;99.90;;;;;;4916386;29;20102;-72
2021/06/22 08:45:24;;;;;;;5.78;2.50;;;12.80;99.90;;;;;;4921484;29;20043;-71
2021/06/22 08:47:51;;;;;;;6.60;3.40;;;12.70;99.90;;;;;;4921257;29;20020;-74
2021/06/22 08:50:19;;;;;;;6.68;4.10;;;12.60;99.90;;;;;;4921959;29;20111;-75
2021/06/22 08:52:47;;;;;;;9.25;4.00;;;12.50;99.90;;;;;;4921679;29;20399;-74
2021/06/22 08:55:26;;;;;;;6.40;3.85;;;12.50;99.90;;;;;;4922317;29;20016;-73
2021/06/22 08:58:09;;;;;;;6.75;3.90;;;12.40;99.90;;;;;;4918358;29;20052;-72
2021/06/22 09:00:46;;;;;;;5.80;3.78;;;12.40;99.90;;;;;;4918963;29;20032;-74
2021/06/22 09:03:16;;;;;;;6.63;4.75;;;12.40;99.90;;;;;;4920366;29;20129;-74
2021/06/22 09:05:53;;;;;;;7.10;5.68;;;12.50;99.90;;;;;;4923088;29;20039;-73
2021/06/22 09:08:30;;;;;;;9.73;4.88;;;12.60;99.90;;;;;;4922248;29;20059;-73
2021/06/22 09:11:11;;;;;;;;;;;12.70;99.90;;;;;;4925830;29;20078;-73
2021/06/22 09:13:41;;;;;;;7.18;4.13;;;12.70;99.90;;;;;;4924996;29;19954;-72
2021/06/22 09:16:13;;;;;;;9.50;4.05;;;12.70;99.90;;;;;;4926329;29;20158;-73
2021/06/22 09:18:45;;;;;;;12.05;5.47;;;12.70;99.90;;;;;;4925070;29;20023;-74
2021/06/22 09:21:18;;;;;;;8.10;4.38;;;12.80;99.90;;;;;;4923937;29;20032;-73
2021/06/22 09:23:47;;;;;;;7.82;4.85;;;12.80;99.90;;;;;;4928597;29;20038;-75
2021/06/22 09:26:21;;;;;;;9.25;5.35;;;12.80;99.90;;;;;;4927492;29;20031;-74
2021/06/22 09:28:50;;;;;;;10.73;4.60;;;12.80;99.90;;;;;;4926182;29;20038;-74
2021/06/22 09:31:21;;;;;;;11.57;4.57;;;12.70;99.90;;;;;;4927745;29;20067;-75
2021/06/22 09:33:55;;;;;;;11.75;4.90;;;12.70;99.90;;;;;;4927555;29;20487;-75
2021/06/22 09:36:26;;;;;;;12.85;7.35;;;12.80;99.90;;;;;;4926844;29;20475;-74
2021/06/22 09:39:04;;;;;;;20.20;11.05;;;12.70;99.90;;;;;;4926378;29;20036;-75
2021/06/22 09:41:33;;;;;;;24.65;11.23;;;12.70;99.90;;;;;;4926455;29;20031;-73
2021/06/22 09:44:11;;;;;;;89.20;34.58;;;12.70;99.90;;;;;;4927106;29;20185;-73
2021/06/22 09:46:41;;;;;;;52.47;22.40;;;12.70;99.90;;;;;;4923293;29;20106;-72
2021/06/22 09:49:30;;;;;;;25.30;12.57;;;12.60;99.90;;;;;;4925291;29;20052;-74
2021/06/22 09:52:04;;;;;;;13.75;7.15;;;12.70;99.90;;;;;;4922365;29;20139;-75
2021/06/22 09:54:32;;;;;;;10.25;5.88;;;12.60;99.90;;;;;;4925683;29;20032;-76
2021/06/22 09:57:17;;;;;;;14.13;6.13;;;12.60;99.90;;;;;;4924858;29;20047;-74
2021/06/22 09:59:53;;;;;;;12.32;5.85;;;12.50;99.90;;;;;;4925488;29;20036;-73
2021/06/22 10:02:21;;;;;;;8.43;4.97;;;12.50;99.90;;;;;;4922121;29;20047;-74
2021/06/22 10:04:51;;;;;;;16.48;5.05;;;12.40;99.90;;;;;;4925923;29;20114;-75
2021/06/22 10:07:22;;;;;;;8.07;4.75;;;12.40;99.90;;;;;;4929627;29;20042;-76
2021/06/22 10:09:55;;;;;;;9.13;5.43;;;12.40;99.90;;;;;;4925036;29;20032;-73
2021/06/22 10:12:24;;;;;;;7.25;4.60;;;12.30;99.90;;;;;;4924780;29;20039;-74
2021/06/22 10:14:54;;;;;;;7.90;5.00;;;12.20;99.90;;;;;;4927132;29;20024;-72
2021/06/22 10:17:26;;;;;;;6.63;4.85;;;12.20;99.90;;;;;;4927120;29;20070;-74
2021/06/22 10:19:56;;;;;;;8.98;5.70;;;12.10;99.90;;;;;;4928992;29;20107;-72
2021/06/22 10:22:26;;;;;;;11.50;6.43;;;12.10;99.90;;;;;;4925694;29;20102;-73
2021/06/22 10:25:00;;;;;;;9.60;6.88;;;12.10;99.90;;;;;;4922351;29;20044;-71
2021/06/22 10:27:29;;;;;;;10.35;6.78;;;12.00;99.90;;;;;;4927186;29;20067;-70
2021/06/22 10:29:59;;;;;;;10.70;7.75;;;11.90;99.90;;;;;;4925997;29;20102;-70
2021/06/22 10:32:27;;;;;;;10.90;5.63;;;11.90;99.90;;;;;;4920325;29;20521;-72
2021/06/22 10:35:00;;;;;;;13.00;5.35;;;11.80;99.90;;;;;;4920741;29;20063;-73
2021/06/22 10:37:36;;;;;;;12.90;4.82;;;11.80;99.90;;;;;;4923410;29;20031;-70
2021/06/22 10:40:23;;;;;;;7.70;5.65;;;11.80;99.90;;;;;;4921946;29;22188;-72
2021/06/22 10:43:02;;;;;;;8.88;5.50;;;11.70;99.90;;;;;;4923856;29;20034;-72
2021/06/22 10:45:30;;;;;;;17.08;5.97;;;11.70;99.90;;;;;;4923041;29;20099;-71
2021/06/22 10:48:02;;;;;;;9.30;5.50;;;11.70;99.90;;;;;;4923220;29;20036;-71
2021/06/22 10:50:32;;;;;;;8.40;4.60;;;11.70;99.90;;;;;;4924012;29;20094;-71
2021/06/22 10:53:10;;;;;;;8.75;5.50;;;11.70;99.90;;;;;;4924698;29;20116;-72
2021/06/22 10:55:41;;;;;;;11.57;5.75;;;11.70;99.90;;;;;;4924268;29;20498;-71
2021/06/22 10:58:12;;;;;;;8.88;5.35;;;11.70;99.90;;;;;;4923744;29;20491;-73
2021/06/22 11:00:39;;;;;;;8.13;4.22;;;11.70;99.90;;;;;;4928481;29;21048;-71
2021/06/22 11:03:34;;;;;;;9.57;4.65;;;11.60;99.90;;;;;;4924419;29;20058;-72
2021/06/22 11:06:10;;;;;;;8.05;5.65;;;11.50;99.90;;;;;;4923536;29;20044;-70
2021/06/22 11:08:40;;;;;;;11.23;7.65;;;11.50;99.90;;;;;;4920165;29;20477;-71
2021/06/22 11:11:08;;;;;;;8.68;7.60;;;11.50;99.90;;;;;;4925117;29;20032;-70
2021/06/22 11:13:41;;;;;;;9.55;6.85;;;11.40;99.90;;;;;;4919846;29;20032;-69
2021/06/22 11:16:17;;;;;;;9.15;5.38;;;11.40;99.90;;;;;;4923355;29;20049;-70
2021/06/22 11:18:57;;;;;;;8.23;5.32;;;11.40;99.90;;;;;;4920511;29;20098;-71
2021/06/22 11:21:28;;;;;;;10.63;6.00;;;11.40;99.90;;;;;;4921877;29;20035;-70
2021/06/22 11:24:07;;;;;;;10.82;5.47;;;11.40;99.90;;;;;;4928041;29;20043;-69
2021/06/22 11:26:50;;;;;;;9.43;6.72;;;11.30;99.90;;;;;;4925473;29;20133;-69
2021/06/22 11:29:44;;;;;;;8.20;5.95;;;11.20;99.90;;;;;;4921832;29;20450;-71
2021/06/22 11:32:26;;;;;;;10.43;6.25;;;11.20;99.90;;;;;;4924064;29;20127;-71
2021/06/22 11:34:56;;;;;;;9.38;5.57;;;11.20;99.90;;;;;;4922741;29;20115;-69
2021/06/22 11:37:25;;;;;;;8.32;6.53;;;11.10;99.90;;;;;;4905694;29;20375;-68
2021/06/22 11:40:05;;;;;;;12.02;6.82;;;11.00;99.90;;;;;;4922950;29;20131;-70
2021/06/22 11:42:40;;;;;;;9.68;6.75;;;11.00;99.90;;;;;;4922464;29;20028;-71
2021/06/22 11:45:14;;;;;;;8.05;6.40;;;10.90;99.90;;;;;;4922897;29;20027;-70
2021/06/22 11:47:41;;;;;;;11.60;7.75;;;10.80;99.90;;;;;;4920459;29;20028;-70
2021/06/22 11:50:11;;;;;;;12.13;7.10;;;10.80;99.90;;;;;;4923408;29;20028;-70
2021/06/22 11:52:44;;;;;;;8.30;5.90;;;10.70;99.90;;;;;;4921926;29;20050;-71
2021/06/22 11:55:17;;;;;;;9.02;6.80;;;10.70;99.90;;;;;;4921225;29;20019;-71
2021/06/22 11:57:53;;;;;;;10.88;5.53;;;10.60;99.90;;;;;;4923280;29;20035;-71
2021/06/22 12:00:28;;;;;;;6.35;5.72;;;10.60;99.90;;;;;;4921899;29;20028;-72
2021/06/22 12:03:00;;;;;;;13.23;6.97;;;10.60;99.90;;;;;;4925610;29;20118;-70
2021/06/22 12:05:32;;;;;;;9.50;6.68;;;10.60;99.90;;;;;;4926232;29;20034;-71
2021/06/22 12:08:04;;;;;;;10.40;6.85;;;10.60;99.90;;;;;;4922591;29;20118;-69
2021/06/22 12:10:43;;;;;;;14.00;7.93;;;10.60;99.90;;;;;;4922137;29;20156;-70
2021/06/22 12:13:11;;;;;;;12.18;6.95;;;10.60;99.90;;;;;;4921446;29;20130;-71
2021/06/22 12:15:43;;;;;;;15.23;7.65;;;10.60;99.90;;;;;;4921677;29;20028;-71
2021/06/22 12:18:11;;;;;;;9.52;7.82;;;10.70;99.90;;;;;;4921014;29;20044;-70
2021/06/22 12:20:41;;;;;;;10.60;7.65;;;10.60;99.90;;;;;;4920990;29;20049;-71
2021/06/22 12:23:09;;;;;;;15.27;6.53;;;10.60;99.90;;;;;;4921222;29;20038;-72
2021/06/22 12:25:39;;;;;;;14.02;8.10;;;10.60;99.90;;;;;;4926637;29;20640;-70
2021/06/22 12:28:08;;;;;;;15.88;8.00;;;10.60;99.90;;;;;;4919796;29;20386;-72
2021/06/22 12:30:43;;;;;;;10.68;7.47;;;10.60;99.90;;;;;;4921950;29;20414;-72
2021/06/22 12:33:23;;;;;;;11.17;7.17;;;10.60;99.90;;;;;;4925305;29;20079;-72
2021/06/22 12:35:53;;;;;;;10.80;6.72;;;10.60;99.90;;;;;;4921078;29;20353;-71
2021/06/22 12:38:23;;;;;;;11.55;7.03;;;10.50;99.90;;;;;;4920476;29;20111;-71
2021/06/22 12:40:53;;;;;;;14.07;6.28;;;10.50;99.90;;;;;;4923509;29;20464;-70
2021/06/22 12:43:37;;;;;;;9.95;5.65;;;10.50;99.90;;;;;;4926409;29;20040;-72
2021/06/22 12:46:05;;;;;;;8.45;5.13;;;10.40;99.90;;;;;;4921743;29;20546;-71
2021/06/22 12:48:33;;;;;;;10.60;5.82;;;10.40;99.90;;;;;;4927291;29;20031;-70
2021/06/22 12:51:01;;;;;;;8.65;5.85;;;10.40;99.90;;;;;;4930223;29;20035;-70
2021/06/22 12:53:29;;;;;;;12.18;6.78;;;10.40;99.90;;;;;;4928200;29;20427;-70
2021/06/22 12:56:11;;;;;;;9.57;7.00;;;10.40;99.90;;;;;;4926411;29;20032;-70
2021/06/22 12:58:50;;;;;;;18.23;6.85;;;10.30;99.90;;;;;;4923715;29;20035;-70